createdAt,value
2022-12-11T00:00:55.555Z,3.05
2022-12-11T00:01:57.129Z,3.02
2022-12-11T00:02:58.741Z,3.06
2022-12-11T00:04:00.352Z,2.99
2022-12-11T00:05:01.903Z,2.95
2022-12-11T00:06:08.231Z,2.92
2022-12-11T00:07:09.811Z,2.99
2022-12-11T00:08:11.980Z,2.95
2022-12-11T00:09:13.640Z,2.93
2022-12-11T00:10:15.347Z,2.99
2022-12-11T00:11:17.112Z,2.88
2022-12-11T00:12:18.673Z,2.95
2022-12-11T00:13:20.239Z,2.99
2022-12-11T00:14:21.855Z,2.96
2022-12-11T00:15:23.513Z,2.98
2022-12-11T00:16:27.049Z,2.96
2022-12-11T00:17:29.002Z,2.93
2022-12-11T00:18:30.623Z,2.89
2022-12-11T00:19:32.254Z,2.95
2022-12-11T00:20:33.824Z,2.92
2022-12-11T00:21:35.463Z,2.93
2022-12-11T00:22:37.150Z,2.91
2022-12-11T00:23:38.741Z,2.87
2022-12-11T00:24:40.392Z,2.91
2022-12-11T00:25:44.038Z,2.85
2022-12-11T00:26:45.727Z,2.87
2022-12-11T00:27:47.594Z,2.89
2022-12-11T00:28:52.997Z,2.84
2022-12-11T00:29:54.565Z,2.82
2022-12-11T00:30:56.168Z,2.79
2022-12-11T00:31:57.881Z,2.79
2022-12-11T00:32:59.453Z,2.84
2022-12-11T00:34:01.712Z,2.85
2022-12-11T00:35:03.368Z,2.85
2022-12-11T00:36:13.178Z,2.89
2022-12-11T00:37:14.923Z,2.85
2022-12-11T00:38:17.820Z,2.82
2022-12-11T00:39:19.415Z,2.84
2022-12-11T00:40:21.089Z,2.81
2022-12-11T00:41:22.729Z,2.81
2022-12-11T00:42:24.312Z,2.84
2022-12-11T00:43:25.931Z,2.88
2022-12-11T00:44:27.621Z,2.87
2022-12-11T00:45:29.210Z,2.74
2022-12-11T00:46:30.788Z,2.75
2022-12-11T00:47:32.498Z,2.72
2022-12-11T00:48:34.085Z,2.72
2022-12-11T00:49:35.808Z,2.69
2022-12-11T00:50:37.600Z,2.69
2022-12-11T00:51:39.203Z,2.64
2022-12-11T00:52:40.806Z,2.61
2022-12-11T00:53:42.526Z,2.54
2022-12-11T00:54:44.119Z,2.57
2022-12-11T00:55:45.700Z,2.54
2022-12-11T00:56:47.299Z,2.58
2022-12-11T00:57:51.713Z,2.62
2022-12-11T00:58:53.361Z,2.61
2022-12-11T00:59:54.947Z,2.57
2022-12-11T01:00:56.590Z,2.59
2022-12-11T01:01:58.255Z,2.58
2022-12-11T01:02:59.905Z,2.52
2022-12-11T01:04:01.600Z,2.58
2022-12-11T01:05:03.290Z,2.64
2022-12-11T01:06:05.222Z,2.52
2022-12-11T01:07:06.849Z,2.51
2022-12-11T01:08:08.455Z,2.51
2022-12-11T01:09:36.237Z,2.44
2022-12-11T01:10:37.866Z,2.45
2022-12-11T01:11:39.766Z,2.48
2022-12-11T01:12:41.416Z,2.47
2022-12-11T01:13:43.149Z,2.38
2022-12-11T01:14:44.720Z,2.41
2022-12-11T01:15:46.311Z,2.31
2022-12-11T01:16:47.970Z,2.34
2022-12-11T01:17:50.389Z,2.34
2022-12-11T01:18:51.979Z,2.33
2022-12-11T01:19:54.524Z,2.31
2022-12-11T01:20:56.135Z,2.30
2022-12-11T01:21:57.786Z,2.24
2022-12-11T01:23:00.115Z,2.28
2022-12-11T01:24:01.689Z,2.31
2022-12-11T01:25:03.291Z,2.30
2022-12-11T01:26:09.069Z,2.18
2022-12-11T01:27:10.697Z,2.21
2022-12-11T01:28:12.286Z,2.23
2022-12-11T01:29:13.865Z,2.21
2022-12-11T01:30:15.465Z,2.18
2022-12-11T01:31:17.715Z,2.16
2022-12-11T01:32:19.454Z,2.17
2022-12-11T01:33:21.041Z,2.17
2022-12-11T01:34:22.614Z,2.10
2022-12-11T01:35:24.171Z,2.10
2022-12-11T01:36:25.764Z,2.11
2022-12-11T01:37:27.398Z,2.07
2022-12-11T01:38:28.980Z,2.13
2022-12-11T01:39:30.905Z,2.10
2022-12-11T01:40:32.860Z,2.07
2022-12-11T01:41:34.540Z,2.03
2022-12-11T01:42:36.123Z,2.05
2022-12-11T01:43:56.567Z,2.03
2022-12-11T01:45:33.706Z,2.05
2022-12-11T01:46:36.315Z,2.06
2022-12-11T01:47:37.878Z,2.07
2022-12-11T01:48:42.401Z,2.03
2022-12-11T01:49:44.183Z,1.95
2022-12-11T01:51:06.132Z,1.95
2022-12-11T01:52:10.272Z,1.97
2022-12-11T01:53:13.845Z,1.92
2022-12-11T01:54:15.482Z,1.95
2022-12-11T01:55:18.295Z,1.92
2022-12-11T01:56:19.879Z,1.92
2022-12-11T01:57:21.429Z,1.90
2022-12-11T01:58:23.910Z,1.89
2022-12-11T01:59:27.056Z,1.87
2022-12-11T02:00:28.752Z,1.90
2022-12-11T02:01:55.159Z,1.87
2022-12-11T02:02:56.729Z,1.79
2022-12-11T02:03:58.378Z,1.83
2022-12-11T02:05:01.568Z,1.86
2022-12-11T02:06:03.717Z,1.85
2022-12-11T02:07:05.787Z,1.77
2022-12-11T02:08:09.086Z,1.77
2022-12-11T02:09:12.705Z,1.76
2022-12-11T02:10:14.330Z,1.75
2022-12-11T02:11:20.971Z,1.73
2022-12-11T02:12:57.951Z,1.76
2022-12-11T02:14:09.229Z,1.67
2022-12-11T02:15:17.909Z,1.65
2022-12-11T02:16:20.178Z,1.62
2022-12-11T02:17:35.683Z,1.59
2022-12-11T02:18:42.562Z,1.59
2022-12-11T02:19:53.045Z,1.60
2022-12-11T02:21:02.590Z,1.60
2022-12-11T02:22:06.155Z,1.60
2022-12-11T02:23:13.457Z,1.59
2022-12-11T02:24:15.065Z,1.59
2022-12-11T02:25:37.183Z,1.55
2022-12-11T02:27:11.069Z,1.58
2022-12-11T02:28:19.200Z,1.59
2022-12-11T02:29:33.549Z,1.63
2022-12-11T02:30:35.186Z,1.62
2022-12-11T02:31:39.789Z,1.56
2022-12-11T02:33:10.735Z,1.60
2022-12-11T02:34:23.866Z,1.59
2022-12-11T02:35:35.718Z,1.58
2022-12-11T02:36:40.390Z,1.54
2022-12-11T02:37:42.605Z,1.59
2022-12-11T02:38:46.916Z,1.55
2022-12-11T02:39:49.139Z,1.60
2022-12-11T02:40:50.715Z,1.60
2022-12-11T02:41:52.526Z,1.62
2022-12-11T02:42:54.393Z,1.65
2022-12-11T02:43:56.627Z,1.66
2022-12-11T02:44:58.909Z,1.65
2022-12-11T02:46:00.542Z,1.65
2022-12-11T02:47:03.361Z,1.63
2022-12-11T02:48:05.988Z,1.65
2022-12-11T02:49:07.625Z,1.63
2022-12-11T02:50:11.569Z,1.59
2022-12-11T02:51:14.355Z,1.62
2022-12-11T02:52:17.167Z,1.60
2022-12-11T02:53:20.455Z,1.65
2022-12-11T02:54:30.063Z,1.60
2022-12-11T02:55:31.641Z,1.63
2022-12-11T02:56:36.903Z,1.60
2022-12-11T02:57:44.080Z,1.62
2022-12-11T02:58:48.103Z,1.63
2022-12-11T02:59:49.755Z,1.63
2022-12-11T03:00:51.346Z,1.59
2022-12-11T03:01:52.934Z,1.58
2022-12-11T03:02:54.590Z,1.55
2022-12-11T03:03:56.460Z,1.63
2022-12-11T03:04:59.550Z,1.52
2022-12-11T03:06:01.119Z,1.60
2022-12-11T03:07:12.442Z,1.58
2022-12-11T03:08:17.480Z,1.58
2022-12-11T03:09:19.220Z,1.59
2022-12-11T03:10:20.929Z,1.51
2022-12-11T03:11:22.513Z,1.52
2022-12-11T03:12:31.749Z,1.56
2022-12-11T03:13:33.324Z,1.55
2022-12-11T03:14:35.650Z,1.56
2022-12-11T03:15:42.037Z,1.55
2022-12-11T03:16:56.782Z,1.56
2022-12-11T03:18:04.417Z,1.54
2022-12-11T03:19:14.586Z,1.58
2022-12-11T03:20:39.136Z,1.58
2022-12-11T03:21:49.695Z,1.55
2022-12-11T03:23:24.620Z,1.56
2022-12-11T03:24:30.141Z,1.51
2022-12-11T03:25:59.865Z,1.52
2022-12-11T03:27:11.326Z,1.49
2022-12-11T03:28:15.774Z,1.56
2022-12-11T03:29:23.567Z,1.54
2022-12-11T03:30:27.253Z,1.56
2022-12-11T03:31:30.961Z,1.59
2022-12-11T03:32:38.157Z,1.58
2022-12-11T03:33:41.610Z,1.49
2022-12-11T03:34:54.540Z,1.45
2022-12-11T03:36:03.577Z,1.46
2022-12-11T03:37:05.535Z,1.45
2022-12-11T03:38:10.334Z,1.45
2022-12-11T03:39:15.689Z,1.46
2022-12-11T03:40:17.967Z,1.48
2022-12-11T03:41:21.513Z,1.51
2022-12-11T03:42:23.081Z,1.46
2022-12-11T03:43:25.271Z,1.48
2022-12-11T03:44:27.490Z,1.52
2022-12-11T03:45:29.151Z,1.48
2022-12-11T03:46:32.297Z,1.48
2022-12-11T03:47:33.946Z,1.51
2022-12-11T03:48:37.247Z,1.51
2022-12-11T03:49:40.325Z,1.54
2022-12-11T03:50:41.961Z,1.55
2022-12-11T03:51:43.572Z,1.55
2022-12-11T03:52:46.386Z,1.52
2022-12-11T03:53:48.024Z,1.49
2022-12-11T03:54:49.723Z,1.54
2022-12-11T03:55:51.369Z,1.54
2022-12-11T03:56:54.913Z,1.54
2022-12-11T03:57:56.538Z,1.56
2022-12-11T03:58:58.110Z,1.60
2022-12-11T03:59:59.762Z,1.60
2022-12-11T04:01:01.355Z,1.59
2022-12-11T04:02:10.718Z,1.55
2022-12-11T04:03:15.908Z,1.63
2022-12-11T04:04:17.584Z,1.65
2022-12-11T04:05:19.319Z,1.66
2022-12-11T04:06:20.895Z,1.62
2022-12-11T04:07:22.599Z,1.60
2022-12-11T04:08:24.287Z,1.67
2022-12-11T04:09:25.925Z,1.66
2022-12-11T04:10:27.558Z,1.69
2022-12-11T04:11:34.761Z,1.63
2022-12-11T04:12:36.398Z,1.63
2022-12-11T04:13:38.387Z,1.65
2022-12-11T04:15:00.619Z,1.67
2022-12-11T04:16:02.256Z,1.75
2022-12-11T04:17:03.882Z,1.72
2022-12-11T04:18:24.516Z,1.73
2022-12-11T04:19:44.944Z,1.69
2022-12-11T04:21:18.805Z,1.72
2022-12-11T04:22:38.952Z,1.72
2022-12-11T04:23:59.332Z,1.65
2022-12-11T04:25:05.282Z,1.65
2022-12-11T04:26:11.799Z,1.65
2022-12-11T04:27:13.361Z,1.60
2022-12-11T04:28:14.934Z,1.62
2022-12-11T04:29:16.585Z,1.60
2022-12-11T04:30:23.107Z,1.60
2022-12-11T04:31:24.783Z,1.62
2022-12-11T04:32:26.362Z,1.62
2022-12-11T04:33:27.965Z,1.66
2022-12-11T04:34:29.780Z,1.69
2022-12-11T04:35:31.429Z,1.70
2022-12-11T04:36:33.068Z,1.70
2022-12-11T04:37:34.734Z,1.59
2022-12-11T04:38:36.490Z,1.60
2022-12-11T04:39:38.109Z,1.59
2022-12-11T04:40:39.684Z,1.56
2022-12-11T04:41:41.743Z,1.59
2022-12-11T04:42:43.473Z,1.55
2022-12-11T04:43:47.664Z,1.60
2022-12-11T04:44:49.264Z,1.62
2022-12-11T04:45:50.897Z,1.62
2022-12-11T04:46:52.557Z,1.63
2022-12-11T04:47:54.261Z,1.59
2022-12-11T04:48:57.873Z,1.63
2022-12-11T04:49:59.823Z,1.67
2022-12-11T04:51:01.463Z,1.66
2022-12-11T04:52:03.293Z,1.65
2022-12-11T04:53:04.909Z,1.62
2022-12-11T04:54:06.486Z,1.62
2022-12-11T04:55:09.131Z,1.65
2022-12-11T04:56:12.745Z,1.65
2022-12-11T04:57:15.567Z,1.67
2022-12-11T04:58:17.242Z,1.70
2022-12-11T04:59:18.869Z,1.69
2022-12-11T05:00:20.465Z,1.63
2022-12-11T05:01:22.645Z,1.70
2022-12-11T05:02:24.996Z,1.73
2022-12-11T05:03:26.660Z,1.72
2022-12-11T05:04:32.716Z,1.72
2022-12-11T05:05:34.289Z,1.70
2022-12-11T05:06:35.885Z,1.70
2022-12-11T05:07:38.008Z,1.72
2022-12-11T05:08:40.413Z,1.70
2022-12-11T05:09:42.008Z,1.76
2022-12-11T05:10:49.860Z,1.69
2022-12-11T05:11:52.157Z,1.73
2022-12-11T05:12:53.790Z,1.72
2022-12-11T05:13:55.368Z,1.72
2022-12-11T05:14:56.940Z,1.72
2022-12-11T05:15:58.643Z,1.70
2022-12-11T05:17:00.402Z,1.75
2022-12-11T05:18:02.041Z,1.75
2022-12-11T05:19:03.739Z,1.72
2022-12-11T05:20:05.862Z,1.67
2022-12-11T05:21:09.302Z,1.65
2022-12-11T05:22:10.931Z,1.63
2022-12-11T05:23:12.553Z,1.66
2022-12-11T05:24:14.130Z,1.66
2022-12-11T05:25:15.767Z,1.65
2022-12-11T05:26:18.716Z,1.67
2022-12-11T05:27:21.013Z,1.67
2022-12-11T05:28:22.777Z,1.69
2022-12-11T05:29:24.340Z,1.73
2022-12-11T05:30:26.476Z,1.69
2022-12-11T05:31:28.228Z,1.63
2022-12-11T05:32:29.871Z,1.59
2022-12-11T05:33:31.546Z,1.60
2022-12-11T05:34:33.203Z,1.62
2022-12-11T05:35:34.808Z,1.58
2022-12-11T05:36:36.454Z,1.62
2022-12-11T05:37:38.052Z,1.62
2022-12-11T05:38:39.646Z,1.58
2022-12-11T05:39:41.269Z,1.51
2022-12-11T05:40:42.903Z,1.56
2022-12-11T05:41:44.480Z,1.51
2022-12-11T05:42:46.068Z,1.52
2022-12-11T05:43:47.768Z,1.58
2022-12-11T05:44:49.763Z,1.58
2022-12-11T05:45:51.349Z,1.63
2022-12-11T05:46:53.035Z,1.63
2022-12-11T05:47:54.740Z,1.63
2022-12-11T05:48:58.278Z,1.63
2022-12-11T05:50:00.121Z,1.60
2022-12-11T05:51:02.020Z,1.62
2022-12-11T05:52:03.643Z,1.58
2022-12-11T05:53:05.663Z,1.60
2022-12-11T05:54:07.583Z,1.63
2022-12-11T05:55:09.588Z,1.59
2022-12-11T05:56:16.063Z,1.58
2022-12-11T05:57:17.728Z,1.56
2022-12-11T05:58:19.863Z,1.56
2022-12-11T05:59:21.666Z,1.58
2022-12-11T06:00:23.243Z,1.59
2022-12-11T06:01:26.860Z,1.49
2022-12-11T06:02:28.575Z,1.54
2022-12-11T06:03:30.230Z,1.55
2022-12-11T06:04:32.078Z,1.56
2022-12-11T06:05:38.312Z,1.59
2022-12-11T06:06:40.521Z,1.59
2022-12-11T06:07:42.233Z,1.58
2022-12-11T06:08:43.853Z,1.59
2022-12-11T06:09:45.431Z,1.60
2022-12-11T06:10:49.959Z,1.63
2022-12-11T06:11:51.542Z,1.63
2022-12-11T06:12:53.115Z,1.63
2022-12-11T06:13:54.801Z,1.63
2022-12-11T06:14:56.583Z,1.59
2022-12-11T06:16:04.953Z,1.58
2022-12-11T06:17:07.034Z,1.59
2022-12-11T06:18:08.669Z,1.54
2022-12-11T06:19:18.346Z,1.51
2022-12-11T06:20:19.979Z,1.54
2022-12-11T06:21:23.412Z,1.52
2022-12-11T06:22:25.006Z,1.52
2022-12-11T06:23:26.638Z,1.52
2022-12-11T06:24:28.200Z,1.55
2022-12-11T06:25:29.923Z,1.52
2022-12-11T06:26:32.151Z,1.51
2022-12-11T06:27:33.852Z,1.46
2022-12-11T06:28:35.517Z,1.44
2022-12-11T06:29:37.096Z,1.48
2022-12-11T06:30:39.684Z,1.52
2022-12-11T06:31:41.404Z,1.44
2022-12-11T06:32:43.697Z,1.48
2022-12-11T06:33:45.434Z,1.41
2022-12-11T06:34:47.086Z,1.41
2022-12-11T06:35:48.880Z,1.42
2022-12-11T06:36:50.446Z,1.42
2022-12-11T06:37:52.113Z,1.42
2022-12-11T06:38:53.755Z,1.48
2022-12-11T06:39:55.332Z,1.45
2022-12-11T06:40:58.147Z,1.39
2022-12-11T06:41:59.718Z,1.48
2022-12-11T06:43:01.300Z,1.45
2022-12-11T06:44:02.909Z,1.48
2022-12-11T06:45:04.963Z,1.54
2022-12-11T06:46:14.146Z,1.54
2022-12-11T06:47:15.778Z,1.55
2022-12-11T06:48:17.821Z,1.54
2022-12-11T06:49:19.732Z,1.55
2022-12-11T06:50:21.314Z,1.54
2022-12-11T06:51:23.129Z,1.59
2022-12-11T06:52:25.595Z,1.59
2022-12-11T06:53:27.214Z,1.52
2022-12-11T06:54:28.851Z,1.55
2022-12-11T06:55:30.453Z,1.55
2022-12-11T06:56:34.413Z,1.56
2022-12-11T06:57:35.989Z,1.54
2022-12-11T06:58:37.786Z,1.58
2022-12-11T06:59:39.348Z,1.55
2022-12-11T07:00:41.048Z,1.60
2022-12-11T07:01:42.758Z,1.60
2022-12-11T07:02:44.339Z,1.65
2022-12-11T07:03:46.051Z,1.67
2022-12-11T07:04:53.349Z,1.62
2022-12-11T07:06:02.640Z,1.63
2022-12-11T07:07:04.274Z,1.69
2022-12-11T07:08:07.382Z,1.67
2022-12-11T07:09:10.146Z,1.67
2022-12-11T07:10:11.978Z,1.66
2022-12-11T07:11:15.223Z,1.66
2022-12-11T07:12:17.096Z,1.67
2022-12-11T07:13:18.748Z,1.69
2022-12-11T07:14:20.513Z,1.73
2022-12-11T07:15:22.092Z,1.76
2022-12-11T07:16:23.823Z,1.77
2022-12-11T07:17:25.482Z,1.83
2022-12-11T07:18:27.285Z,1.82
2022-12-11T07:19:28.968Z,1.83
2022-12-11T07:20:30.649Z,1.83
2022-12-11T07:21:32.289Z,1.83
2022-12-11T07:22:33.893Z,1.85
2022-12-11T07:23:35.700Z,1.89
2022-12-11T07:24:37.302Z,1.92
2022-12-11T07:25:38.969Z,1.92
2022-12-11T07:26:40.738Z,1.90
2022-12-11T07:27:42.324Z,1.89
2022-12-11T07:28:43.927Z,1.95
2022-12-11T07:29:45.580Z,1.96
2022-12-11T07:30:47.110Z,1.99
2022-12-11T07:31:48.746Z,1.97
2022-12-11T07:32:50.377Z,1.97
2022-12-11T07:33:55.452Z,1.96
2022-12-11T07:34:57.017Z,2.02
2022-12-11T07:36:04.821Z,2.00
2022-12-11T07:37:06.402Z,1.97
2022-12-11T07:38:08.626Z,2.06
2022-12-11T07:39:11.943Z,2.09
2022-12-11T07:40:14.122Z,2.09
2022-12-11T07:41:15.837Z,2.11
2022-12-11T07:42:17.499Z,2.11
2022-12-11T07:43:19.106Z,2.13
2022-12-11T07:44:20.783Z,2.16
2022-12-11T07:45:22.474Z,2.09
2022-12-11T07:46:26.084Z,2.09
2022-12-11T07:47:27.723Z,2.10
2022-12-11T07:48:29.450Z,2.14
2022-12-11T07:49:31.327Z,2.16
2022-12-11T07:50:39.473Z,2.14
2022-12-11T07:51:42.622Z,2.11
2022-12-11T07:52:44.605Z,2.13
2022-12-11T07:53:48.646Z,2.18
2022-12-11T07:54:50.297Z,2.18
2022-12-11T07:55:51.869Z,2.16
2022-12-11T07:56:54.145Z,2.18
2022-12-11T07:57:55.936Z,2.17
2022-12-11T07:59:03.078Z,2.11
2022-12-11T08:00:05.423Z,2.16
2022-12-11T08:01:14.621Z,2.21
2022-12-11T08:02:16.348Z,2.21
2022-12-11T08:03:18.030Z,2.24
2022-12-11T08:04:19.705Z,2.21
2022-12-11T08:05:21.403Z,2.24
2022-12-11T08:06:30.469Z,2.27
2022-12-11T08:07:34.944Z,2.24
2022-12-11T08:08:36.621Z,2.26
2022-12-11T08:09:38.300Z,2.27
2022-12-11T08:10:39.871Z,2.33
2022-12-11T08:11:41.538Z,2.26
2022-12-11T08:12:43.114Z,2.24
2022-12-11T08:13:44.718Z,2.24
2022-12-11T08:14:46.322Z,2.21
2022-12-11T08:15:48.990Z,2.24
2022-12-11T08:16:50.772Z,2.20
2022-12-11T08:17:52.397Z,2.24
2022-12-11T08:18:53.969Z,2.24
2022-12-11T08:19:55.591Z,2.26
2022-12-11T08:20:57.182Z,2.28
2022-12-11T08:21:58.873Z,2.28
2022-12-11T08:23:00.450Z,2.30
2022-12-11T08:24:02.169Z,2.21
2022-12-11T08:25:04.140Z,2.27
2022-12-11T08:26:07.014Z,2.27
2022-12-11T08:27:08.668Z,2.23
2022-12-11T08:28:10.253Z,2.23
2022-12-11T08:29:11.839Z,2.26
2022-12-11T08:30:13.770Z,2.23
2022-12-11T08:31:15.645Z,2.24
2022-12-11T08:32:18.191Z,2.21
2022-12-11T08:33:20.022Z,2.27
2022-12-11T08:34:21.655Z,2.26
2022-12-11T08:35:23.435Z,2.21
2022-12-11T08:36:25.119Z,2.24
2022-12-11T08:37:26.714Z,2.24
2022-12-11T08:38:28.292Z,2.21
2022-12-11T08:39:30.358Z,2.28
2022-12-11T08:40:32.257Z,2.28
2022-12-11T08:41:34.122Z,2.30
2022-12-11T08:42:35.732Z,2.31
2022-12-11T08:43:37.806Z,2.31
2022-12-11T08:44:39.762Z,2.27
2022-12-11T08:45:41.394Z,2.27
2022-12-11T08:46:43.000Z,2.27
2022-12-11T08:47:44.573Z,2.31
2022-12-11T08:48:46.164Z,2.30
2022-12-11T08:49:49.172Z,2.28
2022-12-11T08:50:53.278Z,2.34
2022-12-11T08:51:54.891Z,2.36
2022-12-11T08:52:56.520Z,2.38
2022-12-11T08:53:58.986Z,2.37
2022-12-11T08:55:00.667Z,2.34
2022-12-11T08:56:07.433Z,2.36
2022-12-11T08:57:09.024Z,2.40
2022-12-11T08:58:10.604Z,2.34
2022-12-11T08:59:12.218Z,2.38
2022-12-11T09:00:15.349Z,2.34
2022-12-11T09:01:19.231Z,2.31
2022-12-11T09:02:21.009Z,2.36
2022-12-11T09:03:22.672Z,2.36
2022-12-11T09:04:24.259Z,2.40
2022-12-11T09:05:25.905Z,2.42
2022-12-11T09:06:29.119Z,2.42
2022-12-11T09:07:30.768Z,2.44
2022-12-11T09:08:32.522Z,2.44
2022-12-11T09:09:34.167Z,2.42
2022-12-11T09:10:35.755Z,2.44
2022-12-11T09:11:37.887Z,2.48
2022-12-11T09:12:39.686Z,2.42
2022-12-11T09:13:41.364Z,2.38
2022-12-11T09:14:42.944Z,2.44
2022-12-11T09:15:44.615Z,2.42
2022-12-11T09:16:46.268Z,2.44
2022-12-11T09:17:47.849Z,2.48
2022-12-11T09:18:50.247Z,2.48
2022-12-11T09:19:51.857Z,2.45
2022-12-11T09:21:07.340Z,2.42
2022-12-11T09:22:11.259Z,2.41
2022-12-11T09:23:12.912Z,2.38
2022-12-11T09:24:15.060Z,2.41
2022-12-11T09:25:16.640Z,2.44
2022-12-11T09:26:18.524Z,2.47
2022-12-11T09:27:21.422Z,2.45
2022-12-11T09:28:23.267Z,2.50
2022-12-11T09:29:25.038Z,2.45
2022-12-11T09:30:26.688Z,2.41
2022-12-11T09:31:30.048Z,2.45
2022-12-11T09:32:31.650Z,2.45
2022-12-11T09:33:33.223Z,2.48
2022-12-11T09:34:34.898Z,2.52
2022-12-11T09:35:36.803Z,2.42
2022-12-11T09:36:39.032Z,2.47
2022-12-11T09:37:40.608Z,2.52
2022-12-11T09:38:44.145Z,2.54
2022-12-11T09:39:45.856Z,2.51
2022-12-11T09:40:47.447Z,2.50
2022-12-11T09:41:58.002Z,2.57
2022-12-11T09:43:22.558Z,2.55
2022-12-11T09:44:24.167Z,2.61
2022-12-11T09:45:25.782Z,2.58
2022-12-11T09:46:32.082Z,2.59
2022-12-11T09:47:37.437Z,2.61
2022-12-11T09:48:40.123Z,2.58
2022-12-11T09:49:43.113Z,2.57
2022-12-11T09:50:44.720Z,2.61
2022-12-11T09:52:23.789Z,2.59
2022-12-11T09:53:36.023Z,2.65
2022-12-11T09:54:40.151Z,2.64
2022-12-11T09:55:53.412Z,2.68
2022-12-11T09:57:02.637Z,2.68
2022-12-11T09:58:04.246Z,2.58
2022-12-11T09:59:19.047Z,2.61
2022-12-11T10:00:39.711Z,2.64
2022-12-11T10:01:51.482Z,2.62
2022-12-11T10:03:04.686Z,2.62
2022-12-11T10:04:10.772Z,2.66
2022-12-11T10:05:32.550Z,2.74
2022-12-11T10:06:42.176Z,2.71
2022-12-11T10:08:00.873Z,2.64
2022-12-11T10:09:31.275Z,2.66
2022-12-11T10:10:43.002Z,2.71
2022-12-11T10:11:57.580Z,2.68
2022-12-11T10:13:07.557Z,2.72
2022-12-11T10:14:24.271Z,2.71
2022-12-11T10:16:00.477Z,2.64
2022-12-11T10:17:13.578Z,2.68
2022-12-11T10:18:17.485Z,2.69
2022-12-11T10:19:25.043Z,2.74
2022-12-11T10:20:39.378Z,2.69
2022-12-11T10:21:41.752Z,2.59
2022-12-11T10:22:43.417Z,2.62
2022-12-11T10:23:50.619Z,2.61
2022-12-11T10:25:12.174Z,2.71
2022-12-11T10:26:18.958Z,2.72
2022-12-11T10:27:22.406Z,2.71
2022-12-11T10:28:24.002Z,2.69
2022-12-11T10:29:25.718Z,2.68
2022-12-11T10:30:34.338Z,2.66
2022-12-11T10:31:56.624Z,2.69
2022-12-11T10:33:16.668Z,2.69
2022-12-11T10:34:37.697Z,2.64
2022-12-11T10:35:42.034Z,2.66
2022-12-11T10:36:43.680Z,2.65
2022-12-11T10:37:45.378Z,2.69
2022-12-11T10:38:47.576Z,2.54
2022-12-11T10:39:49.214Z,2.61
2022-12-11T10:40:53.096Z,2.64
2022-12-11T10:41:55.278Z,2.68
2022-12-11T10:42:57.139Z,2.62
2022-12-11T10:43:59.371Z,2.69
2022-12-11T10:45:02.396Z,2.74
2022-12-11T10:46:04.615Z,2.68
2022-12-11T10:47:12.880Z,2.75
2022-12-11T10:48:14.517Z,2.77
2022-12-11T10:49:35.258Z,2.68
2022-12-11T10:50:36.957Z,2.72
2022-12-11T10:51:38.610Z,2.72
2022-12-11T10:52:44.199Z,2.77
2022-12-11T10:53:50.722Z,2.78
2022-12-11T10:55:16.082Z,2.75
2022-12-11T10:56:27.922Z,2.74
2022-12-11T10:57:34.424Z,2.78
2022-12-11T10:58:38.438Z,2.82
2022-12-11T10:59:42.993Z,2.85
2022-12-11T11:00:44.647Z,2.88
2022-12-11T11:01:46.575Z,2.81
2022-12-11T11:02:48.203Z,2.88
2022-12-11T11:04:24.255Z,2.89
2022-12-11T11:05:30.248Z,2.92
2022-12-11T11:06:31.900Z,2.89
2022-12-11T11:07:34.463Z,2.93
2022-12-11T11:08:44.406Z,2.98
2022-12-11T11:09:47.471Z,2.91
2022-12-11T11:10:58.503Z,2.88
2022-12-11T11:12:04.425Z,2.93
2022-12-11T11:13:12.675Z,2.95
2022-12-11T11:14:18.594Z,2.98
2022-12-11T11:15:25.757Z,2.93
2022-12-11T11:16:27.399Z,2.98
2022-12-11T11:17:34.725Z,2.96
2022-12-11T11:18:36.961Z,3.01
2022-12-11T11:19:38.647Z,3.01
2022-12-11T11:20:44.129Z,3.05
2022-12-11T11:21:50.760Z,2.99
2022-12-11T11:22:58.103Z,2.92
2022-12-11T11:23:59.799Z,2.89
2022-12-11T11:25:01.505Z,2.98
2022-12-11T11:26:07.465Z,3.01
2022-12-11T11:27:37.192Z,3.02
2022-12-11T11:28:41.609Z,3.03
2022-12-11T11:29:43.270Z,3.08
2022-12-11T11:31:01.630Z,3.02
2022-12-11T11:32:41.509Z,3.01
2022-12-11T11:34:05.702Z,2.92
2022-12-11T11:35:13.658Z,2.85
2022-12-11T11:36:29.761Z,2.85
2022-12-11T11:37:32.570Z,2.79
2022-12-11T11:38:46.525Z,2.81
2022-12-11T11:39:48.206Z,2.87
2022-12-11T11:41:13.148Z,2.88
2022-12-11T11:42:21.373Z,2.88
2022-12-11T11:43:29.334Z,2.88
2022-12-11T11:44:37.546Z,2.89
2022-12-11T11:45:59.981Z,2.95
2022-12-11T11:47:12.223Z,2.91
2022-12-11T11:48:43.997Z,2.98
2022-12-11T11:50:07.792Z,2.96
2022-12-11T11:51:34.481Z,2.99
2022-12-11T11:52:55.915Z,2.96
2022-12-11T11:53:58.577Z,2.91
2022-12-11T11:55:22.396Z,2.87
2022-12-11T11:56:31.452Z,2.88
2022-12-11T11:57:42.584Z,2.88
2022-12-11T11:59:02.413Z,2.92
2022-12-11T12:00:18.470Z,2.89
2022-12-11T12:01:20.154Z,2.91
2022-12-11T12:02:21.874Z,2.98
2022-12-11T12:03:24.345Z,2.99
2022-12-11T12:04:34.015Z,2.92
2022-12-11T12:05:46.120Z,2.91
2022-12-11T12:07:04.428Z,2.91
2022-12-11T12:08:06.021Z,2.88
2022-12-11T12:09:23.618Z,2.88
2022-12-11T12:10:44.316Z,2.88
2022-12-11T12:12:06.837Z,2.91
2022-12-11T12:13:47.587Z,2.93
2022-12-11T12:15:04.429Z,2.96
2022-12-11T12:16:29.478Z,2.93
2022-12-11T12:18:08.558Z,2.95
2022-12-11T12:19:24.967Z,2.92
2022-12-11T12:20:57.206Z,2.99
2022-12-11T12:21:58.783Z,3.01
2022-12-11T12:23:12.653Z,3.06
2022-12-11T12:24:34.785Z,2.93
2022-12-11T12:25:41.139Z,2.93
2022-12-11T12:29:07.082Z,2.92
2022-12-11T12:30:12.649Z,2.89
2022-12-11T12:31:38.974Z,2.99
2022-12-11T12:33:05.815Z,3.01
2022-12-11T12:34:22.447Z,2.96
2022-12-11T12:35:37.673Z,3.02
2022-12-11T12:37:14.493Z,3.01
2022-12-11T12:38:42.064Z,3.01
2022-12-11T12:40:11.324Z,3.11
2022-12-11T12:41:22.659Z,3.13
2022-12-11T12:42:24.313Z,3.18
2022-12-11T12:43:48.713Z,3.08
2022-12-11T12:44:59.833Z,3.09
2022-12-11T12:46:04.549Z,3.09
2022-12-11T12:47:10.596Z,3.12
2022-12-11T12:48:12.203Z,3.19
2022-12-11T12:49:49.634Z,3.22
2022-12-11T12:50:51.554Z,3.19
2022-12-11T12:51:53.288Z,3.23
2022-12-11T12:52:55.091Z,3.20
2022-12-11T12:53:58.797Z,3.24
2022-12-11T12:55:27.348Z,3.36
2022-12-11T12:56:29.978Z,3.34
2022-12-11T12:57:32.994Z,3.34
2022-12-11T12:58:34.874Z,3.23
2022-12-11T12:59:36.515Z,3.24
2022-12-11T13:00:42.667Z,3.26
2022-12-11T13:01:52.373Z,3.27
2022-12-11T13:02:56.105Z,3.32
2022-12-11T13:04:03.132Z,3.33
2022-12-11T13:05:07.792Z,3.39
2022-12-11T13:06:09.517Z,3.37
2022-12-11T13:07:17.704Z,3.42
2022-12-11T13:08:24.829Z,3.37
2022-12-11T13:09:27.006Z,3.34
2022-12-11T13:10:35.994Z,3.23
2022-12-11T13:11:37.697Z,3.22
2022-12-11T13:12:44.631Z,3.26
2022-12-11T13:14:01.479Z,3.20
2022-12-11T13:15:03.300Z,3.27
2022-12-11T13:16:17.134Z,3.30
2022-12-11T13:17:21.638Z,3.24
2022-12-11T13:18:35.176Z,3.20
2022-12-11T13:19:42.357Z,3.27
2022-12-11T13:20:48.428Z,3.29
2022-12-11T13:22:06.472Z,3.26
2022-12-11T13:23:14.946Z,3.23
2022-12-11T13:24:25.134Z,3.20
2022-12-11T13:25:31.495Z,3.23
2022-12-11T13:26:33.209Z,3.11
2022-12-11T13:27:34.790Z,3.12
2022-12-11T13:28:39.870Z,3.11
2022-12-11T13:29:41.983Z,3.05
2022-12-11T13:30:43.594Z,3.06
2022-12-11T13:31:45.793Z,3.08
2022-12-11T13:32:55.795Z,3.06
2022-12-11T13:33:58.120Z,3.02
2022-12-11T13:35:00.492Z,3.06
2022-12-11T13:36:24.106Z,2.95
2022-12-11T13:37:36.623Z,2.99
2022-12-11T13:38:39.390Z,3.02
2022-12-11T13:39:41.052Z,2.98
2022-12-11T13:40:43.446Z,3.01
2022-12-11T13:41:51.037Z,2.89
2022-12-11T13:42:59.930Z,2.92
2022-12-11T13:44:01.737Z,2.99
2022-12-11T13:45:03.846Z,2.91
2022-12-11T13:46:07.368Z,2.92
2022-12-11T13:47:13.143Z,2.98
2022-12-11T13:48:51.899Z,2.93
2022-12-11T13:49:55.992Z,2.92
2022-12-11T13:50:57.594Z,2.85
2022-12-11T13:51:59.579Z,2.82
2022-12-11T13:53:02.763Z,2.82
2022-12-11T13:54:17.342Z,2.85
2022-12-11T13:55:25.076Z,2.84
2022-12-11T13:56:26.884Z,2.69
2022-12-11T13:57:29.017Z,2.75
2022-12-11T13:58:33.883Z,2.65
2022-12-11T13:59:37.014Z,2.66
2022-12-11T14:00:38.636Z,2.71
2022-12-11T14:01:40.304Z,2.68
2022-12-11T14:02:42.745Z,2.72
2022-12-11T14:04:11.176Z,2.68
2022-12-11T14:05:13.338Z,2.65
2022-12-11T14:06:18.833Z,2.65
2022-12-11T14:07:25.454Z,2.72
2022-12-11T14:08:31.745Z,2.74
2022-12-11T14:09:33.396Z,2.74
2022-12-11T14:10:35.037Z,2.75
2022-12-11T14:11:38.238Z,2.81
2022-12-11T14:12:40.103Z,2.65
2022-12-11T14:13:42.029Z,2.68
2022-12-11T14:14:45.737Z,2.74
2022-12-11T14:15:47.556Z,2.71
2022-12-11T14:16:50.518Z,2.71
2022-12-11T14:17:52.541Z,2.64
2022-12-11T14:18:55.046Z,2.68
2022-12-11T14:19:58.296Z,2.62
2022-12-11T14:21:04.489Z,2.58
2022-12-11T14:22:08.082Z,2.54
2022-12-11T14:23:17.637Z,2.55
2022-12-11T14:24:19.648Z,2.55
2022-12-11T14:25:26.606Z,2.50
2022-12-11T14:26:30.170Z,2.55
2022-12-11T14:27:31.964Z,2.54
2022-12-11T14:28:38.351Z,2.50
2022-12-11T14:29:39.968Z,2.45
2022-12-11T14:30:46.474Z,2.42
2022-12-11T14:31:48.606Z,2.44
2022-12-11T14:32:50.337Z,2.36